Other Surface Observations
Issued by NWS Missoula, MT

Home | Current Version | Previous Version | Text Only | Print | Product List | Glossary On
Versions: 1 2 3 4 5 6 7 8 9 10 11 12 13 14 15 16 17 18 19 20 21 22 23 24 25 26 27 28 29 30 31 32 33 34 35 36 37 38 39 40 41 42 43 44 45 46 47 48 49 50
000
SXUS55 KMSO 230323
OSOMSO
MONTANA AWOS SUMMARY
NATIONAL WEATHER SERVICE MISSOULA MT
823 PM MST SUN JAN 22 2017

Montana AWOS Reports

LAUREL      |K6S8 230235Z AUTO 00000KT 40SM M02/M09 A2972 RMK AO1 T10211088
TWIN BRIDGES|K7S1 230235Z AUTO 18004KT 40SM M02/M08 A2967 RMK AO1 T10161082
LAUREL      |K6S8 230255Z AUTO 00000KT 40SM M02/M08 A2971 RMK AO1 T10161077
TWIN BRIDGES|K7S1 230255Z AUTO 13005KT 40SM M02/M09 A2967 RMK AO1 T10211088
ROUNDUP     |KRPX 230235Z AUTO 01004KT 25SM M04/M08 A2967 RMK AO1 T10431077
SCOBEY      |K9S2 230255Z AUTO 29004KT 25SM M02/M07 A2977 RMK AO1 T10211066
EKALAKA     |K97M 230255Z AUTO 00000KT 40SM M08/M11 A2977 RMK AO1 T10821105
LAUREL      |K6S8 230255Z AUTO 00000KT 40SM M02/M08 A2971 RMK AO1 T10161077
PLAINS      |KS34 230255Z AUTO 00000KT 10SM M04/M07 A2966 RMK AO1 T10431071
ROUNDUP     |KRPX 230255Z AUTO 01004KT 25SM M05/M08 A2967 RMK AO1 T10491082




USA.gov is the U.S. government's official web portal to all federal, state and local government web resources and services.